createdAt,value
2019-04-11T00:01:58.602Z,2.17
2019-04-11T00:04:30.364Z,1.80
2019-04-11T00:07:01.749Z,1.80
2019-04-11T00:09:52.545Z,1.63
2019-04-11T00:12:24.317Z,1.90
2019-04-11T00:14:55.975Z,1.90
2019-04-11T00:17:28.062Z,1.90
2019-04-11T00:20:00.218Z,2.00
2019-04-11T00:22:31.668Z,2.30
2019-04-11T00:25:03.197Z,1.90
2019-04-11T00:27:35.114Z,2.10
2019-04-11T00:30:10.100Z,2.03
2019-04-11T00:32:41.686Z,1.97
2019-04-11T00:35:13.480Z,2.27
2019-04-11T00:37:45.458Z,2.70
2019-04-11T00:40:18.836Z,3.33
2019-04-11T00:42:51.159Z,3.90
2019-04-11T00:45:24.820Z,3.90
2019-04-11T00:47:57.465Z,5.90
2019-04-11T00:50:31.525Z,7.73
2019-04-11T00:53:03.563Z,8.07
2019-04-11T00:55:36.169Z,7.50
2019-04-11T00:58:07.558Z,6.17
2019-04-11T01:00:39.853Z,6.97
2019-04-11T01:03:11.754Z,8.37
2019-04-11T01:05:43.263Z,8.87
2019-04-11T01:08:15.652Z,8.13
2019-04-11T01:10:47.805Z,7.57
2019-04-11T01:13:19.379Z,8.07
2019-04-11T01:16:03.101Z,7.23
2019-04-11T01:18:34.380Z,8.23
2019-04-11T01:21:06.254Z,10.17
2019-04-11T01:23:37.827Z,8.90
2019-04-11T01:26:09.342Z,8.13
2019-04-11T01:28:40.782Z,11.63
2019-04-11T01:31:13.513Z,14.83
2019-04-11T01:33:46.245Z,12.70
2019-04-11T01:36:18.544Z,7.07
2019-04-11T01:38:54.733Z,6.57
2019-04-11T01:41:26.705Z,6.17
2019-04-11T01:44:02.205Z,5.03
2019-04-11T01:46:31.954Z,3.90
2019-04-11T01:49:10.184Z,3.13
2019-04-11T01:51:42.176Z,2.77
2019-04-11T01:54:13.840Z,2.70
2019-04-11T01:56:45.714Z,2.67
2019-04-11T01:59:17.416Z,2.87
2019-04-11T02:02:07.532Z,2.70
2019-04-11T02:04:52.299Z,3.53
2019-04-11T02:07:24.730Z,3.07
2019-04-11T02:09:56.772Z,4.77
2019-04-11T02:12:29.032Z,5.40
2019-04-11T02:15:00.405Z,4.17
2019-04-11T02:17:32.580Z,2.70
2019-04-11T02:20:06.980Z,3.20
2019-04-11T02:22:57.146Z,3.40
2019-04-11T02:25:47.291Z,3.93
2019-04-11T02:28:20.289Z,5.57
2019-04-11T02:30:55.711Z,7.90
2019-04-11T02:33:27.149Z,6.53
2019-04-11T02:35:58.574Z,5.40
2019-04-11T02:38:30.501Z,5.27
2019-04-11T02:41:03.503Z,4.27
2019-04-11T02:43:38.205Z,2.50
2019-04-11T02:46:19.857Z,2.50
2019-04-11T02:48:42.650Z,2.40
2019-04-11T02:51:15.047Z,2.80
2019-04-11T02:53:47.237Z,2.40
2019-04-11T02:56:19.330Z,2.60
2019-04-11T02:58:52.273Z,3.13
2019-04-11T03:01:26.124Z,4.10
2019-04-11T03:03:59.034Z,3.90
2019-04-11T03:06:30.999Z,7.30
2019-04-11T03:09:02.763Z,6.33
2019-04-11T03:11:34.685Z,4.70
2019-04-11T03:14:07.615Z,3.37
2019-04-11T03:16:53.449Z,4.37
2019-04-11T03:19:29.621Z,5.70
2019-04-11T03:21:47.274Z,6.67
2019-04-11T03:24:19.272Z,8.20
2019-04-11T03:26:52.622Z,9.00
2019-04-11T03:29:26.516Z,11.50
2019-04-11T03:32:51.288Z,11.47
2019-04-11T03:35:20.926Z,11.20
2019-04-11T03:37:26.080Z,11.37
2019-04-11T03:39:57.443Z,10.80
2019-04-11T03:42:29.615Z,8.30
2019-04-11T03:44:50.195Z,10.20
2019-04-11T03:47:34.814Z,9.37
2019-04-11T03:50:05.515Z,6.10
2019-04-11T03:52:30.539Z,3.80
2019-04-11T03:55:05.927Z,3.63
2019-04-11T03:57:39.660Z,2.87
2019-04-11T04:00:14.245Z,3.40
2019-04-11T04:02:55.279Z,3.10
2019-04-11T04:05:30.152Z,3.10
2019-04-11T04:08:06.112Z,2.97
2019-04-11T04:10:39.640Z,3.00
2019-04-11T04:13:16.933Z,3.20
2019-04-11T04:16:19.757Z,3.00
2019-04-11T04:18:58.798Z,3.50
2019-04-11T04:21:51.130Z,3.03
2019-04-11T04:24:32.790Z,3.50
2019-04-11T04:27:05.200Z,3.67
2019-04-11T04:29:38.111Z,3.50
2019-04-11T04:32:12.158Z,3.30
2019-04-11T04:34:48.105Z,3.20
2019-04-11T04:37:26.736Z,3.27
2019-04-11T04:40:23.827Z,3.17
2019-04-11T04:42:49.896Z,3.10
2019-04-11T04:45:21.442Z,3.20
2019-04-11T04:47:59.223Z,3.67
2019-04-11T04:50:30.947Z,4.87
2019-04-11T04:53:05.304Z,4.27
2019-04-11T04:55:41.221Z,4.60
2019-04-11T04:58:15.773Z,5.30
2019-04-11T05:00:53.800Z,5.87
2019-04-11T05:03:29.793Z,7.47
2019-04-11T05:06:11.990Z,5.93
2019-04-11T05:08:49.198Z,5.50
2019-04-11T05:11:23.971Z,6.00
2019-04-11T05:14:00.750Z,5.43
2019-04-11T05:16:37.553Z,4.80
2019-04-11T05:19:13.312Z,5.33
2019-04-11T05:21:47.852Z,4.27
2019-04-11T05:24:24.177Z,6.97
2019-04-11T05:26:57.852Z,3.57
2019-04-11T05:29:34.014Z,6.00
2019-04-11T05:32:07.668Z,5.20
2019-04-11T05:34:42.123Z,4.17
2019-04-11T05:37:17.156Z,4.73
2019-04-11T05:39:50.539Z,4.10
2019-04-11T05:42:26.512Z,3.90
2019-04-11T05:44:59.257Z,4.37
2019-04-11T05:47:35.509Z,5.57
2019-04-11T05:50:28.356Z,5.60
2019-04-11T05:53:05.559Z,6.33
2019-04-11T05:55:45.789Z,5.80
2019-04-11T05:58:24.165Z,4.03
2019-04-11T06:01:14.472Z,4.10
2019-04-11T06:03:50.452Z,3.90
2019-04-11T06:06:42.934Z,3.30
2019-04-11T06:09:23.406Z,3.83
2019-04-11T06:12:03.335Z,3.20
2019-04-11T06:14:47.187Z,3.80
2019-04-11T06:17:23.798Z,3.67
2019-04-11T06:20:27.711Z,3.03
2019-04-11T06:23:19.322Z,2.63
2019-04-11T06:26:14.706Z,2.57
2019-04-11T06:28:49.460Z,2.97
2019-04-11T06:31:42.302Z,2.53
2019-04-11T06:34:17.652Z,2.90
2019-04-11T06:37:09.687Z,3.50
2019-04-11T06:39:56.695Z,4.00
2019-04-11T06:42:39.295Z,2.90
2019-04-11T06:45:31.427Z,2.90
2019-04-11T06:48:22.320Z,3.17
2019-04-11T06:51:17.882Z,3.00
2019-04-11T06:54:11.082Z,3.33
2019-04-11T06:56:48.234Z,2.73
2019-04-11T06:59:38.689Z,3.30
2019-04-11T07:02:19.723Z,3.27
2019-04-11T07:04:55.051Z,2.63
2019-04-11T07:07:34.245Z,3.17
2019-04-11T07:10:11.730Z,3.57
2019-04-11T07:13:12.294Z,2.80
2019-04-11T07:15:52.856Z,3.00
2019-04-11T07:18:35.851Z,3.00
2019-04-11T07:21:13.229Z,3.63
2019-04-11T07:24:05.384Z,3.13
2019-04-11T07:26:45.859Z,4.03
2019-04-11T07:29:51.952Z,18.90
2019-04-11T07:32:27.896Z,4.63
2019-04-11T07:35:19.299Z,4.90
2019-04-11T07:38:03.129Z,5.77
2019-04-11T07:41:06.607Z,6.30
2019-04-11T07:43:58.543Z,7.17
2019-04-11T07:46:45.165Z,5.57
2019-04-11T07:49:24.371Z,5.53
2019-04-11T07:52:02.722Z,5.33
2019-04-11T07:54:39.632Z,4.67
2019-04-11T07:57:22.660Z,5.37
2019-04-11T08:00:13.247Z,8.53
2019-04-11T08:03:10.158Z,4.87
2019-04-11T08:06:22.431Z,5.07
2019-04-11T08:09:13.189Z,5.53
2019-04-11T08:12:08.769Z,5.10
2019-04-11T08:14:59.837Z,4.60
2019-04-11T08:17:41.767Z,4.40
2019-04-11T08:20:37.848Z,4.50
2019-04-11T08:23:16.552Z,5.20
2019-04-11T08:26:16.510Z,5.30
2019-04-11T08:28:59.614Z,4.93
2019-04-11T08:31:54.856Z,5.43
2019-04-11T08:34:27.058Z,4.73
2019-04-11T08:37:27.481Z,4.27
2019-04-11T08:39:59.771Z,4.37
2019-04-11T08:42:50.885Z,4.50
2019-04-11T08:45:23.763Z,4.30
2019-04-11T08:47:58.607Z,4.23
2019-04-11T08:50:32.884Z,4.17
2019-04-11T08:53:22.138Z,4.17
2019-04-11T08:56:01.918Z,3.80
2019-04-11T08:59:04.926Z,8.00
2019-04-11T09:01:36.786Z,3.90
2019-04-11T09:04:23.989Z,3.93
2019-04-11T09:06:56.783Z,3.40
2019-04-11T09:09:47.382Z,4.47
2019-04-11T09:12:20.484Z,3.20
2019-04-11T09:15:10.765Z,3.17
2019-04-11T09:17:58.928Z,3.90
2019-04-11T09:20:40.258Z,3.03
2019-04-11T09:23:14.379Z,127.27
2019-04-11T09:26:03.927Z,22.17
2019-04-11T09:28:39.766Z,2.90
2019-04-11T09:31:33.781Z,2.80
2019-04-11T09:34:23.882Z,2.10
2019-04-11T09:37:17.655Z,1.97
2019-04-11T09:40:23.839Z,1.70
2019-04-11T09:43:24.373Z,1.37
2019-04-11T09:46:18.947Z,2.20
2019-04-11T09:49:27.020Z,2.30
2019-04-11T09:52:04.335Z,7.73
2019-04-11T09:55:04.500Z,1.90
2019-04-11T09:57:41.979Z,3.33
2019-04-11T10:00:43.112Z,12.83
2019-04-11T10:03:25.625Z,2.50
2019-04-11T10:06:15.906Z,4.03
2019-04-11T10:08:52.729Z,2.90
2019-04-11T10:11:56.781Z,2.10
2019-04-11T10:14:31.520Z,1.60
2019-04-11T10:17:24.517Z,1.50
2019-04-11T10:19:58.758Z,1.50
2019-04-11T10:22:49.036Z,1.30
2019-04-11T10:25:25.234Z,1.20
2019-04-11T10:28:31.440Z,1.70
2019-04-11T10:31:22.211Z,1.63
2019-04-11T10:34:13.193Z,1.67
2019-04-11T10:36:49.687Z,1.40
2019-04-11T10:39:55.458Z,1.20
2019-04-11T10:42:28.727Z,1.50
2019-04-11T10:45:20.669Z,1.17
2019-04-11T10:47:55.950Z,1.30
2019-04-11T10:50:45.129Z,1.30
2019-04-11T10:53:17.979Z,1.43
2019-04-11T10:56:08.640Z,1.50
2019-04-11T10:58:51.115Z,1.63
2019-04-11T11:01:42.209Z,2.33
2019-04-11T11:04:27.617Z,1.87
2019-04-11T11:07:13.116Z,1.67
2019-04-11T11:09:56.739Z,1.83
2019-04-11T11:12:43.623Z,2.00
2019-04-11T11:15:31.558Z,2.20
2019-04-11T11:18:49.110Z,4.63
2019-04-11T11:21:06.913Z,1.83
2019-04-11T11:23:56.940Z,2.13
2019-04-11T11:26:35.487Z,1.40
2019-04-11T11:29:45.333Z,1.50
2019-04-11T11:32:33.639Z,1.60
2019-04-11T11:35:37.593Z,1.77
2019-04-11T11:38:19.864Z,1.60
2019-04-11T11:41:10.504Z,1.30
2019-04-11T11:43:43.345Z,1.20
2019-04-11T11:46:40.422Z,2.30
2019-04-11T11:49:35.231Z,2.27
2019-04-11T11:52:09.567Z,1.30
2019-04-11T11:54:46.173Z,1.30
2019-04-11T11:57:40.338Z,3.37
2019-04-11T12:00:23.455Z,1.20
2019-04-11T12:03:05.311Z,1.10
2019-04-11T12:06:03.113Z,1.90
2019-04-11T12:09:00.349Z,1.30
2019-04-11T12:11:32.362Z,1.30
2019-04-11T12:14:43.443Z,1.20
2019-04-11T12:17:52.494Z,1.20
2019-04-11T12:20:31.330Z,1.70
2019-04-11T12:23:07.288Z,1.30
2019-04-11T12:25:47.147Z,1.40
2019-04-11T12:28:38.453Z,1.50
2019-04-11T12:31:11.355Z,1.60
2019-04-11T12:34:20.210Z,1.50
2019-04-11T12:36:53.319Z,1.30
2019-04-11T12:39:44.092Z,1.43
2019-04-11T12:42:25.675Z,1.40
2019-04-11T12:45:28.579Z,4.40
2019-04-11T12:48:01.978Z,2.70
2019-04-11T12:50:51.716Z,1.80
2019-04-11T12:53:34.124Z,5.70
2019-04-11T12:56:28.748Z,3.07
2019-04-11T12:59:03.588Z,2.23
2019-04-11T13:01:53.370Z,1.13
2019-04-11T13:04:50.413Z,8.63
2019-04-11T13:07:51.696Z,3.83
2019-04-11T13:10:26.732Z,17.67
2019-04-11T13:13:20.075Z,2.70
2019-04-11T13:16:12.205Z,1.10
2019-04-11T13:19:02.456Z,1.80
2019-04-11T13:21:57.436Z,1.63
2019-04-11T13:24:59.889Z,12.77
2019-04-11T13:27:39.227Z,5.30
2019-04-11T13:30:29.406Z,8.30
2019-04-11T13:33:04.561Z,1.30
2019-04-11T13:35:55.549Z,2.50
2019-04-11T13:38:46.559Z,2.10
2019-04-11T13:41:35.952Z,1.07
2019-04-11T13:44:15.140Z,0.97
2019-04-11T13:47:02.538Z,1.70
2019-04-11T13:49:48.749Z,1.20
2019-04-11T13:52:39.560Z,1.17
2019-04-11T13:55:32.062Z,1.30
2019-04-11T13:58:18.856Z,4.07
2019-04-11T14:01:01.985Z,2.10
2019-04-11T14:03:58.820Z,1.50
2019-04-11T14:06:40.829Z,8.97
2019-04-11T14:09:38.798Z,7.00
2019-04-11T14:12:15.136Z,1.70
2019-04-11T14:15:06.007Z,1.40
2019-04-11T14:17:52.358Z,1.17
2019-04-11T14:20:58.118Z,1.50
2019-04-11T14:23:37.960Z,1.40
2019-04-11T14:26:31.998Z,1.93
2019-04-11T14:29:19.017Z,1.50
2019-04-11T14:32:00.109Z,1.80
2019-04-11T14:34:45.099Z,1.70
2019-04-11T14:37:38.937Z,1.60
2019-04-11T14:40:41.952Z,2.60
2019-04-11T14:43:43.767Z,1.80
2019-04-11T14:46:36.546Z,2.10
2019-04-11T14:49:13.662Z,3.13
2019-04-11T14:52:25.324Z,3.63
2019-04-11T14:55:00.266Z,2.23
2019-04-11T14:57:55.907Z,1.90
2019-04-11T15:00:37.058Z,2.30
2019-04-11T15:03:36.663Z,2.47
2019-04-11T15:06:31.448Z,2.07
2019-04-11T15:09:28.862Z,3.90
2019-04-11T15:12:10.770Z,1.67
2019-04-11T15:15:20.367Z,3.57
2019-04-11T15:17:57.947Z,2.40
2019-04-11T15:20:54.688Z,2.97
2019-04-11T15:23:25.551Z,3.50
2019-04-11T15:26:16.361Z,3.67
2019-04-11T15:29:07.167Z,3.30
2019-04-11T15:32:06.832Z,3.50
2019-04-11T15:34:46.959Z,3.33
2019-04-11T15:37:36.406Z,3.67
2019-04-11T15:40:12.212Z,3.50
2019-04-11T15:43:05.994Z,3.60
2019-04-11T15:45:42.375Z,3.67
2019-04-11T15:48:40.313Z,3.70
2019-04-11T15:51:46.075Z,4.20
2019-04-11T15:54:43.141Z,7.37
2019-04-11T15:57:32.559Z,4.83
2019-04-11T16:00:27.081Z,3.77
2019-04-11T16:03:18.190Z,3.83
2019-04-11T16:06:11.726Z,3.80
2019-04-11T16:08:46.364Z,3.77
2019-04-11T16:11:52.510Z,3.40
2019-04-11T16:14:32.636Z,3.70
2019-04-11T16:17:36.069Z,3.43
2019-04-11T16:20:22.120Z,4.27
2019-04-11T16:23:18.788Z,3.50
2019-04-11T16:25:55.272Z,3.67
2019-04-11T16:28:56.720Z,4.00
2019-04-11T16:31:40.134Z,3.60
2019-04-11T16:34:55.756Z,3.23
2019-04-11T16:37:27.468Z,3.40
2019-04-11T16:40:29.242Z,3.77
2019-04-11T16:43:07.661Z,3.90
2019-04-11T16:45:57.424Z,3.63
2019-04-11T16:48:31.348Z,4.27
2019-04-11T16:51:05.808Z,3.90
2019-04-11T16:53:38.162Z,4.40
2019-04-11T16:56:12.801Z,5.23
2019-04-11T16:58:50.091Z,4.67
2019-04-11T17:01:23.855Z,4.70
2019-04-11T17:03:56.898Z,4.73
2019-04-11T17:06:45.725Z,4.67
2019-04-11T17:09:31.230Z,5.20
2019-04-11T17:12:03.484Z,4.73
2019-04-11T17:14:37.531Z,5.27
2019-04-11T17:17:15.327Z,4.77
2019-04-11T17:19:45.508Z,6.53
2019-04-11T17:22:18.888Z,5.80
2019-04-11T17:24:51.243Z,6.43
2019-04-11T17:27:23.716Z,6.00
2019-04-11T17:29:56.371Z,5.97
2019-04-11T17:32:28.757Z,6.90
2019-04-11T17:35:02.044Z,7.03
2019-04-11T17:37:34.907Z,7.13
2019-04-11T17:40:07.703Z,7.83
2019-04-11T17:42:39.590Z,7.33
2019-04-11T17:45:11.727Z,6.07
2019-04-11T17:47:44.812Z,15.23
2019-04-11T17:50:18.351Z,12.87
2019-04-11T17:52:50.333Z,5.53
2019-04-11T17:55:24.552Z,28.40
2019-04-11T17:57:57.662Z,231.37
2019-04-11T18:00:32.719Z,168.70
2019-04-11T18:03:05.902Z,119.27
2019-04-11T18:05:38.028Z,317.33
2019-04-11T18:08:10.061Z,154.77
2019-04-11T18:10:42.219Z,121.90
2019-04-11T18:13:14.046Z,115.67
2019-04-11T18:15:45.904Z,68.63
2019-04-11T18:18:17.747Z,111.17
2019-04-11T18:20:52.033Z,117.33
2019-04-11T18:23:24.398Z,42.43
2019-04-11T18:25:56.669Z,24.17
2019-04-11T18:28:29.823Z,19.93
2019-04-11T18:31:02.326Z,13.20
2019-04-11T18:33:36.603Z,13.67
2019-04-11T18:36:09.645Z,12.53
2019-04-11T18:38:41.777Z,9.20
2019-04-11T18:41:14.026Z,11.33
2019-04-11T18:43:47.126Z,11.80
2019-04-11T18:46:20.235Z,16.63
2019-04-11T18:48:54.885Z,12.80
2019-04-11T18:51:27.344Z,9.33
2019-04-11T18:53:59.388Z,9.10
2019-04-11T18:56:31.853Z,9.47
2019-04-11T18:59:04.379Z,7.50
2019-04-11T19:01:39.121Z,6.70
2019-04-11T19:04:12.011Z,6.93
2019-04-11T19:06:44.010Z,6.47
2019-04-11T19:09:22.102Z,6.30
2019-04-11T19:11:54.706Z,11.57
2019-04-11T19:14:31.836Z,6.23
2019-04-11T19:17:04.402Z,8.37
2019-04-11T19:19:48.701Z,8.57
2019-04-11T19:22:32.261Z,12.03
2019-04-11T19:24:54.372Z,12.47
2019-04-11T19:27:26.935Z,13.77
2019-04-11T19:30:02.556Z,12.50
2019-04-11T19:32:35.131Z,9.83
2019-04-11T19:35:17.228Z,12.00
2019-04-11T19:37:50.652Z,10.97
2019-04-11T19:40:30.340Z,10.93
2019-04-11T19:43:03.516Z,9.97
2019-04-11T19:45:40.905Z,10.43
2019-04-11T19:48:15.254Z,12.80
2019-04-11T19:50:47.817Z,7.93
2019-04-11T19:53:20.497Z,5.47
2019-04-11T19:56:18.841Z,6.90
2019-04-11T19:58:51.749Z,9.80
2019-04-11T20:01:25.863Z,8.00
2019-04-11T20:03:58.305Z,8.27
2019-04-11T20:06:32.350Z,17.93
2019-04-11T20:09:06.479Z,8.37
2019-04-11T20:11:39.109Z,8.03
2019-04-11T20:14:16.513Z,7.00
2019-04-11T20:16:51.945Z,5.83
2019-04-11T20:19:27.124Z,5.63
2019-04-11T20:21:59.171Z,5.93
2019-04-11T20:24:31.935Z,5.73
2019-04-11T20:27:04.746Z,6.00
2019-04-11T20:29:37.379Z,5.60
2019-04-11T20:32:12.978Z,5.67
2019-04-11T20:34:45.688Z,6.00
2019-04-11T20:37:18.203Z,9.73
2019-04-11T20:39:50.380Z,9.63
2019-04-11T20:42:26.667Z,7.93
2019-04-11T20:45:02.144Z,7.00
2019-04-11T20:47:43.194Z,6.80
2019-04-11T20:50:16.162Z,6.80
2019-04-11T20:52:54.478Z,7.73
2019-04-11T20:55:26.739Z,7.40
2019-04-11T20:58:09.816Z,15.63
2019-04-11T21:00:50.164Z,7.37
2019-04-11T21:03:14.722Z,6.60
2019-04-11T21:05:47.209Z,8.87
2019-04-11T21:08:22.046Z,7.17
2019-04-11T21:10:55.495Z,7.10
2019-04-11T21:13:30.641Z,7.60
2019-04-11T21:16:03.803Z,7.47
2019-04-11T21:18:42.121Z,8.27
2019-04-11T21:21:14.145Z,9.57
2019-04-11T21:23:52.107Z,8.53
2019-04-11T21:26:24.201Z,8.77
2019-04-11T21:29:00.291Z,11.13
2019-04-11T21:31:32.576Z,9.77
2019-04-11T21:34:12.030Z,11.13
2019-04-11T21:36:44.029Z,10.27
2019-04-11T21:39:25.223Z,13.37
2019-04-11T21:41:57.477Z,12.80
2019-04-11T21:44:37.114Z,10.57
2019-04-11T21:47:09.226Z,9.30
2019-04-11T21:49:48.460Z,10.57
2019-04-11T21:52:20.492Z,10.50
2019-04-11T21:54:55.462Z,9.90
2019-04-11T21:57:27.976Z,10.30
2019-04-11T22:00:14.260Z,10.43
2019-04-11T22:02:46.317Z,10.50
2019-04-11T22:05:18.179Z,11.27
2019-04-11T22:07:50.687Z,11.30
2019-04-11T22:10:30.371Z,12.87
2019-04-11T22:13:09.763Z,13.40
2019-04-11T22:15:42.536Z,12.37
2019-04-11T22:18:16.780Z,13.03
2019-04-11T22:20:48.786Z,11.37
2019-04-11T22:23:21.103Z,11.73
2019-04-11T22:25:56.031Z,10.93
2019-04-11T22:28:28.617Z,10.90
2019-04-11T22:31:09.867Z,11.90
2019-04-11T22:34:00.645Z,10.97
2019-04-11T22:36:33.652Z,11.00
2019-04-11T22:39:08.541Z,11.77
2019-04-11T22:41:41.375Z,11.33
2019-04-11T22:44:14.177Z,11.50
2019-04-11T22:46:47.030Z,11.00
2019-04-11T22:49:19.304Z,10.47
2019-04-11T22:51:51.804Z,11.80
2019-04-11T22:54:23.924Z,11.80
2019-04-11T22:56:56.169Z,14.30
2019-04-11T22:59:28.145Z,12.67
2019-04-11T23:02:16.866Z,11.30
2019-04-11T23:04:47.078Z,12.20
2019-04-11T23:07:22.787Z,12.60
2019-04-11T23:09:55.570Z,12.10
2019-04-11T23:12:30.370Z,13.97
2019-04-11T23:15:03.332Z,15.23
2019-04-11T23:17:39.413Z,13.63
2019-04-11T23:20:14.266Z,20.00
2019-04-11T23:22:56.429Z,20.83
2019-04-11T23:25:28.677Z,20.20
2019-04-11T23:28:00.462Z,18.63
2019-04-11T23:30:32.369Z,15.17
2019-04-11T23:33:10.108Z,15.43
2019-04-11T23:35:42.783Z,16.63
2019-04-11T23:38:23.859Z,16.07
2019-04-11T23:40:55.972Z,19.87
2019-04-11T23:43:30.764Z,16.97
2019-04-11T23:46:03.013Z,14.30
2019-04-11T23:48:38.950Z,51.40
2019-04-11T23:51:11.564Z,29.53
2019-04-11T23:53:49.617Z,27.77
2019-04-11T23:56:22.305Z,27.03
2019-04-11T23:59:01.841Z,23.50
